EGNS - Ronaldsway Airport
Distance from station: E 5mi, 14km
Updated: 07/21/2018 12:20am
Mostly Cloudy
Mostly Cloudy
 Wind from NNW
Wind: NNW 9 mph , 15 km/h
Temperature: 57°F , 14°C
Dew Point: 54°F , 12°C
Humidity: 88%
Barometer: 29.97 inHg , 1015 hPa
Clouds: Mostly Cloudy
Visibility: 6 miles , 10 km
Cloud details: Few Clouds 500 ft
Mostly Cloudy 1900 ft
2018/07/21 07:20 EGNS 210720Z 33008KT 9999 FEW005 BKN019 14/12 Q1015 NOSIG